Portada
METAR-TAF:

METAR-TAF

Aeroports :

Morris, Illinois, Estats Units d'Amèrica

Morris Municipal Airport (James R. Washburn Field)

latitud: 41-25-31N, longitud: 088-25-07W, altitud: 178 m

Observació

L'informe es va fer fa 22 minuts, a les 01:55 UTC
Vent 18 kt del Sud/Sud-Est amb ràfegues de 23 kt
Temperatura 4°C
Humitat 70%
Pressió 1013 hPa
Visibilitat: 16.1 km
Cel clar

METAR: KC09 190155Z AUTO 15018G23KT 10SM CLR 04/M01 A2992 RMK AO2 T00401006

Hora: 20:17 (02:17 UTC)


TAF: manca

Observacions i pronòstics meteorològics de més de 4000 aeroports (METAR i TAF).

Les estacions disponibles són els punts grocs i vermells al mapa.

Posi el ratolí al punt desitjat per veure el nom de l'estació.

Feu clic per veure les observacions i els pronòstics meteorològics.

Per canviar el mapa: feu clic els botons verds amb una creu de color negre per apropar; al botó verd amb un guió per allunyar la imatge; o en les fletxes verdes per a mapes adjacents.


METAR-TAF: